DAOR/CBH METAR and TAF weather

Enter ICAO airport designator
Station Type Date Time Source
DAOR METAR 2020/01/21 21:00 UTC NOAA

DAOR 212100Z 12002KT 9999 SCT033TCU 09/M02 Q1015


Station Type Date Time Source
DAOR Decoded METAR 2020/01/21 21:00 UTC NOAA

Bechar, Algeria (DAOR) 31-37N 002-14W 773M
Jan 21, 2020 - 04:00 PM EST / 2020.01.21 2100 UTC
Wind: from the ESE (120 degrees) at 2 MPH (2 KT):0
Visibility: greater than 7 mile(s):0
Sky conditions: partly cloudy
Weather: Towering cumulus clouds observed
Temperature: 48 F (9 C)
Dew Point: 28 F (-2 C)
Relative Humidity: 45%
Pressure (altimeter): 29.97 in. Hg (1015 hPa)
ob: DAOR 212100Z 12002KT 9999 SCT033TCU 09/M02 Q1015
cycle: 21

Station Type Date Time Source
DAOR TAF 2017/11/09 18:03 UTC NOAA

TAF DAOR 091700Z 0918/1009 35010KT 6000 FEW033 SCT100
TEMPO 0918/0924 3000 BLSA PROB40
TEMPO 0918/0924 35020G35KT 2000 -TSRA FEW030CB

Example: see airport list